createdAt,value
2022-11-01T00:01:07.011Z,2.55
2022-11-01T00:03:36.935Z,2.42
2022-11-01T00:06:15.597Z,2.63
2022-11-01T00:08:47.854Z,2.70
2022-11-01T00:11:16.345Z,2.33
2022-11-01T00:13:46.474Z,2.10
2022-11-01T00:16:20.230Z,2.20
2022-11-01T00:18:58.196Z,2.15
2022-11-01T00:21:31.689Z,2.08
2022-11-01T00:24:05.986Z,2.65
2022-11-01T00:26:39.228Z,2.13
2022-11-01T00:29:09.753Z,2.55
2022-11-01T00:31:40.455Z,2.33
2022-11-01T00:34:15.653Z,2.60
2022-11-01T00:36:45.672Z,2.15
2022-11-01T00:39:19.432Z,2.47
2022-11-01T00:41:49.874Z,2.17
2022-11-01T00:44:25.042Z,2.33
2022-11-01T00:46:58.947Z,2.20
2022-11-01T00:49:31.422Z,2.30
2022-11-01T00:52:03.168Z,2.35
2022-11-01T00:54:33.675Z,2.38
2022-11-01T00:57:03.520Z,2.08
2022-11-01T00:59:40.894Z,1.98
2022-11-01T01:02:14.444Z,2.17
2022-11-01T01:04:49.476Z,2.25
2022-11-01T01:07:18.194Z,2.55
2022-11-01T01:09:54.386Z,2.33
2022-11-01T01:12:24.830Z,2.50
2022-11-01T01:14:57.811Z,2.40
2022-11-01T01:17:28.801Z,2.45
2022-11-01T01:20:06.248Z,2.88
2022-11-01T01:22:36.023Z,2.30
2022-11-01T01:25:06.043Z,2.30
2022-11-01T01:27:36.303Z,2.72
2022-11-01T01:30:12.470Z,2.28
2022-11-01T01:32:42.842Z,3.13
2022-11-01T01:35:24.676Z,2.50
2022-11-01T01:37:54.772Z,2.83
2022-11-01T01:40:24.163Z,2.53
2022-11-01T01:42:51.145Z,2.60
2022-11-01T01:45:35.306Z,2.92
2022-11-01T01:48:11.271Z,2.65
2022-11-01T01:51:02.661Z,2.58
2022-11-01T01:53:41.555Z,2.95
2022-11-01T01:56:14.273Z,2.20
2022-11-01T01:58:47.601Z,2.45
2022-11-01T02:01:20.410Z,2.95
2022-11-01T02:03:48.284Z,2.42
2022-11-01T02:06:19.748Z,2.85
2022-11-01T02:08:57.061Z,3.22
2022-11-01T02:11:31.304Z,3.05
2022-11-01T02:14:04.418Z,2.95
2022-11-01T02:16:48.994Z,2.60
2022-11-01T02:19:28.062Z,3.50
2022-11-01T02:22:33.296Z,2.20
2022-11-01T02:25:08.264Z,2.72
2022-11-01T02:27:53.954Z,2.50
2022-11-01T02:30:24.044Z,2.50
2022-11-01T02:32:57.234Z,2.50
2022-11-01T02:35:32.915Z,2.47
2022-11-01T02:38:15.474Z,2.53
2022-11-01T02:41:10.026Z,2.75
2022-11-01T02:43:52.749Z,2.58
2022-11-01T02:46:39.794Z,2.92
2022-11-01T02:49:13.268Z,2.90
2022-11-01T02:51:43.184Z,3.03
2022-11-01T02:54:16.514Z,2.80
2022-11-01T02:56:46.764Z,2.67
2022-11-01T02:59:20.213Z,2.70
2022-11-01T03:01:51.794Z,2.60
2022-11-01T03:04:26.854Z,3.28
2022-11-01T03:06:57.523Z,2.47
2022-11-01T03:09:33.405Z,2.80
2022-11-01T03:12:08.590Z,2.42
2022-11-01T03:14:44.564Z,3.00
2022-11-01T03:17:20.483Z,2.53
2022-11-01T03:20:00.542Z,2.70
2022-11-01T03:22:39.013Z,2.38
2022-11-01T03:25:44.489Z,2.70
2022-11-01T03:28:31.099Z,3.83
2022-11-01T03:31:06.088Z,2.83
2022-11-01T03:33:44.156Z,2.70
2022-11-01T03:36:17.717Z,2.97
2022-11-01T03:39:04.060Z,3.00
2022-11-01T03:41:37.453Z,2.78
2022-11-01T03:44:12.937Z,3.00
2022-11-01T03:46:48.408Z,2.55
2022-11-01T03:49:21.987Z,2.72
2022-11-01T03:51:55.302Z,2.55
2022-11-01T03:54:22.792Z,2.72
2022-11-01T03:56:55.733Z,2.83
2022-11-01T03:59:27.197Z,3.33
2022-11-01T04:01:57.335Z,2.38
2022-11-01T04:04:33.096Z,2.83
2022-11-01T04:07:05.465Z,2.65
2022-11-01T04:09:38.348Z,2.38
2022-11-01T04:12:08.491Z,3.38
2022-11-01T04:14:53.982Z,3.15
2022-11-01T04:17:41.085Z,2.92
2022-11-01T04:20:29.320Z,2.97
2022-11-01T04:23:12.392Z,2.35
2022-11-01T04:25:50.362Z,2.50
2022-11-01T04:28:24.697Z,2.65
2022-11-01T04:30:57.439Z,2.88
2022-11-01T04:33:24.604Z,2.88
2022-11-01T04:35:56.838Z,2.63
2022-11-01T04:38:26.340Z,2.88
2022-11-01T04:40:56.394Z,2.95
2022-11-01T04:43:23.605Z,3.05
2022-11-01T04:45:58.902Z,2.65
2022-11-01T04:48:30.208Z,2.40
2022-11-01T04:51:00.185Z,3.20
2022-11-01T04:53:31.321Z,2.72
2022-11-01T04:56:04.751Z,2.90
2022-11-01T04:58:34.575Z,2.70
2022-11-01T05:01:06.644Z,2.60
2022-11-01T05:03:37.945Z,2.47
2022-11-01T05:06:13.917Z,2.45
2022-11-01T05:08:49.421Z,2.75
2022-11-01T05:11:22.047Z,2.95
2022-11-01T05:13:53.432Z,2.38
2022-11-01T05:16:27.895Z,2.80
2022-11-01T05:18:58.242Z,3.03
2022-11-01T05:21:37.096Z,2.60
2022-11-01T05:24:06.736Z,2.60
2022-11-01T05:26:36.851Z,2.50
2022-11-01T05:29:33.035Z,2.70
2022-11-01T05:32:07.686Z,2.97
2022-11-01T05:34:38.082Z,2.88
2022-11-01T05:37:08.052Z,2.95
2022-11-01T05:39:38.144Z,2.75
2022-11-01T05:42:10.142Z,2.92
2022-11-01T05:44:46.904Z,2.53
2022-11-01T05:47:19.716Z,3.05
2022-11-01T05:49:51.096Z,2.42
2022-11-01T05:52:21.348Z,2.20
2022-11-01T05:54:53.546Z,2.75
2022-11-01T05:57:23.121Z,2.80
2022-11-01T05:59:53.657Z,2.65
2022-11-01T06:02:26.217Z,2.53
2022-11-01T06:56:57.947Z,3.22
2022-11-01T06:59:26.537Z,3.05
2022-11-01T07:01:58.368Z,2.95
2022-11-01T07:04:29.988Z,3.13
2022-11-01T07:07:00.122Z,2.50
2022-11-01T07:09:33.561Z,2.50
2022-11-01T07:12:06.469Z,2.72
2022-11-01T07:14:38.356Z,2.55
2022-11-01T07:17:17.647Z,3.28
2022-11-01T07:19:53.653Z,2.20
2022-11-01T07:22:30.309Z,2.75
2022-11-01T07:25:03.119Z,2.80
2022-11-01T07:27:42.704Z,2.97
2022-11-01T07:30:12.932Z,3.35
2022-11-01T07:32:46.927Z,3.90
2022-11-01T07:35:14.900Z,2.75
2022-11-01T07:37:47.420Z,2.80
2022-11-01T07:40:21.756Z,2.72
2022-11-01T07:42:53.654Z,3.05
2022-11-01T07:45:26.577Z,2.97
2022-11-01T07:48:07.955Z,2.78
2022-11-01T07:50:43.842Z,3.25
2022-11-01T07:53:17.503Z,2.72
2022-11-01T07:55:51.759Z,2.83
2022-11-01T07:58:21.969Z,2.90
2022-11-01T08:00:53.313Z,2.95
2022-11-01T08:03:31.905Z,3.03
2022-11-01T08:06:04.841Z,2.50
2022-11-01T08:08:38.511Z,2.67
2022-11-01T08:11:06.592Z,2.60
2022-11-01T08:13:43.363Z,3.00
2022-11-01T08:16:26.720Z,2.75
2022-11-01T08:19:01.010Z,3.53
2022-11-01T08:21:34.083Z,4.28
2022-11-01T08:24:04.392Z,3.92
2022-11-01T08:26:40.060Z,4.60
2022-11-01T08:29:16.902Z,3.50
2022-11-01T08:31:53.895Z,3.85
2022-11-01T08:34:24.012Z,3.05
2022-11-01T08:37:06.175Z,3.90
2022-11-01T08:39:39.684Z,3.45
2022-11-01T08:42:13.142Z,5.00
2022-11-01T08:44:45.998Z,4.45
2022-11-01T08:47:22.849Z,4.40
2022-11-01T08:49:56.186Z,4.47
2022-11-01T08:52:28.563Z,5.18
2022-11-01T08:55:01.920Z,3.90
2022-11-01T08:57:42.416Z,4.55
2022-11-01T09:00:18.253Z,4.40
2022-11-01T09:02:54.569Z,5.25
2022-11-01T09:05:26.281Z,4.38
2022-11-01T09:08:00.915Z,4.60
2022-11-01T09:10:35.600Z,5.10
2022-11-01T09:13:12.165Z,4.43
2022-11-01T09:15:48.419Z,4.65
2022-11-01T09:18:22.691Z,4.72
2022-11-01T09:21:05.295Z,4.80
2022-11-01T09:23:43.568Z,4.00
2022-11-01T09:26:24.134Z,3.67
2022-11-01T09:29:00.930Z,3.30
2022-11-01T09:31:34.981Z,3.95
2022-11-01T09:34:06.568Z,3.20
2022-11-01T09:36:41.378Z,3.15
2022-11-01T09:39:16.537Z,3.28
2022-11-01T09:41:57.392Z,3.15
2022-11-01T09:44:30.110Z,2.72
2022-11-01T09:47:21.408Z,2.95
2022-11-01T09:49:55.883Z,3.00
2022-11-01T09:52:27.134Z,2.17
2022-11-01T09:54:54.921Z,3.00
2022-11-01T09:57:39.496Z,2.90
2022-11-01T10:00:23.587Z,3.13
2022-11-01T10:06:04.206Z,2.70
2022-11-01T10:08:37.534Z,2.55
2022-11-01T10:11:14.808Z,2.75
2022-11-01T10:13:58.814Z,3.25
2022-11-01T10:16:49.068Z,2.47
2022-11-01T10:19:27.900Z,2.45
2022-11-01T10:22:05.673Z,2.33
2022-11-01T10:24:39.794Z,2.20
2022-11-01T10:27:16.505Z,3.08
2022-11-01T10:30:09.937Z,2.47
2022-11-01T10:32:49.722Z,2.15
2022-11-01T10:35:17.053Z,2.30
2022-11-01T10:37:58.090Z,1.95
2022-11-01T10:40:54.754Z,2.10
2022-11-01T10:43:26.524Z,1.80
2022-11-01T10:46:03.867Z,2.10
2022-11-01T10:48:37.609Z,1.52
2022-11-01T10:51:07.724Z,1.50
2022-11-01T10:53:44.367Z,1.30
2022-11-01T10:56:21.396Z,1.52
2022-11-01T10:59:04.589Z,1.23
2022-11-01T11:01:37.385Z,1.52
2022-11-01T11:04:10.481Z,1.90
2022-11-01T11:06:41.296Z,1.27
2022-11-01T11:09:24.955Z,1.10
2022-11-01T11:11:58.113Z,1.75
2022-11-01T11:14:29.056Z,1.30
2022-11-01T11:17:06.363Z,1.38
2022-11-01T11:19:39.607Z,1.58
2022-11-01T11:22:12.154Z,1.25
2022-11-01T11:24:41.054Z,1.25
2022-11-01T11:27:21.728Z,1.70
2022-11-01T11:30:03.390Z,1.70
2022-11-01T11:32:34.846Z,1.80
2022-11-01T11:35:09.261Z,1.30
2022-11-01T11:37:43.921Z,1.75
2022-11-01T11:40:21.674Z,1.65
2022-11-01T11:42:54.761Z,1.98
2022-11-01T11:45:30.275Z,1.55
2022-11-01T11:48:16.668Z,1.52
2022-11-01T11:50:47.635Z,1.95
2022-11-01T11:53:26.631Z,1.63
2022-11-01T11:56:03.621Z,1.30
2022-11-01T11:58:45.116Z,1.27
2022-11-01T12:01:21.586Z,1.38
2022-11-01T12:04:14.557Z,1.75
2022-11-01T12:06:48.547Z,1.80
2022-11-01T12:09:34.494Z,1.70
2022-11-01T12:12:31.433Z,1.45
2022-11-01T12:14:59.538Z,1.08
2022-11-01T12:17:35.451Z,1.40
2022-11-01T12:20:05.988Z,1.50
2022-11-01T12:22:38.644Z,1.60
2022-11-01T12:25:08.900Z,1.63
2022-11-01T12:27:39.594Z,0.98
2022-11-01T12:30:15.531Z,1.33
2022-11-01T12:32:59.861Z,1.45
2022-11-01T12:35:31.560Z,1.42
2022-11-01T12:38:16.898Z,1.17
2022-11-01T12:40:49.304Z,1.50
2022-11-01T12:43:33.000Z,1.67
2022-11-01T12:46:26.488Z,1.65
2022-11-01T12:49:09.912Z,1.05
2022-11-01T12:51:46.699Z,1.15
2022-11-01T12:54:31.330Z,1.50
2022-11-01T12:57:03.081Z,1.27
2022-11-01T12:59:40.188Z,1.40
2022-11-01T13:02:28.267Z,1.42
2022-11-01T13:05:16.672Z,1.40
2022-11-01T13:08:07.260Z,1.23
2022-11-01T13:10:42.996Z,1.40
2022-11-01T13:13:25.428Z,1.75
2022-11-01T13:16:02.591Z,1.30
2022-11-01T13:18:38.534Z,1.65
2022-11-01T13:21:11.674Z,1.63
2022-11-01T13:23:51.978Z,1.15
2022-11-01T13:26:23.746Z,1.27
2022-11-01T13:29:00.855Z,1.50
2022-11-01T13:31:40.269Z,1.52
2022-11-01T13:34:26.317Z,1.45
2022-11-01T13:37:08.502Z,1.60
2022-11-01T13:39:51.347Z,1.55
2022-11-01T13:42:35.872Z,1.40
2022-11-01T13:45:09.703Z,1.60
2022-11-01T13:47:55.898Z,1.30
2022-11-01T13:50:47.320Z,1.50
2022-11-01T13:53:26.465Z,1.23
2022-11-01T13:55:58.568Z,2.10
2022-11-01T13:58:34.073Z,1.85
2022-11-01T14:01:24.246Z,1.95
2022-11-01T14:04:06.875Z,1.83
2022-11-01T14:06:46.006Z,1.77
2022-11-01T14:09:31.327Z,2.00
2022-11-01T14:12:12.035Z,1.60
2022-11-01T14:14:46.437Z,1.90
2022-11-01T14:17:20.835Z,1.98
2022-11-01T14:19:52.232Z,1.50
2022-11-01T14:22:36.178Z,1.40
2022-11-01T14:25:26.124Z,2.80
2022-11-01T14:28:11.907Z,1.40
2022-11-01T14:30:44.649Z,1.50
2022-11-01T14:33:29.647Z,1.13
2022-11-01T14:36:03.969Z,1.15
2022-11-01T14:38:39.286Z,1.20
2022-11-01T14:41:15.829Z,1.48
2022-11-01T14:43:58.508Z,1.38
2022-11-01T14:46:27.567Z,1.40
2022-11-01T14:48:58.714Z,1.52
2022-11-01T14:51:46.619Z,1.73
2022-11-01T14:54:20.776Z,1.45
2022-11-01T14:57:00.392Z,1.75
2022-11-01T14:59:29.963Z,2.03
2022-11-01T15:02:02.686Z,1.55
2022-11-01T15:04:32.718Z,1.65
2022-11-01T15:07:01.097Z,1.88
2022-11-01T15:09:30.401Z,1.50
2022-11-01T15:12:08.498Z,1.70
2022-11-01T15:14:38.228Z,1.60
2022-11-01T15:17:14.455Z,1.20
2022-11-01T15:19:45.274Z,1.20
2022-11-01T15:22:20.639Z,1.42
2022-11-01T15:24:52.067Z,1.10
2022-11-01T15:27:23.426Z,1.10
2022-11-01T15:29:57.953Z,1.45
2022-11-01T15:32:31.257Z,1.42
2022-11-01T15:35:04.742Z,1.10
2022-11-01T15:37:35.989Z,1.35
2022-11-01T15:40:37.582Z,1.40
2022-11-01T15:43:05.368Z,1.20
2022-11-01T15:45:39.080Z,1.13
2022-11-01T15:48:12.186Z,1.10
2022-11-01T15:50:51.036Z,1.08
2022-11-01T15:53:23.306Z,1.08
2022-11-01T15:55:56.086Z,1.00
2022-11-01T15:58:33.931Z,1.00
2022-11-01T16:01:03.371Z,1.20
2022-11-01T16:03:37.168Z,1.15
2022-11-01T16:06:07.942Z,1.20
2022-11-01T16:08:54.503Z,1.33
2022-11-01T16:11:26.969Z,1.00
2022-11-01T16:14:07.677Z,1.58
2022-11-01T16:17:07.797Z,1.80
2022-11-01T16:19:55.436Z,1.25
2022-11-01T16:22:37.071Z,1.60
2022-11-01T16:25:24.535Z,1.30
2022-11-01T16:27:58.567Z,1.20
2022-11-01T16:30:58.341Z,1.10
2022-11-01T16:33:35.973Z,1.10
2022-11-01T16:36:24.210Z,1.02
2022-11-01T16:38:55.514Z,1.45
2022-11-01T16:41:37.944Z,1.05
2022-11-01T16:44:17.753Z,1.20
2022-11-01T16:46:49.412Z,1.17
2022-11-01T16:49:27.410Z,1.05
2022-11-01T16:51:57.053Z,1.27
2022-11-01T16:54:29.019Z,0.90
2022-11-01T16:57:03.166Z,1.00
2022-11-01T17:02:30.164Z,0.90
2022-11-01T17:05:06.630Z,0.98
2022-11-01T17:07:42.622Z,1.00
2022-11-01T17:10:23.166Z,0.80
2022-11-01T17:13:01.386Z,0.90
2022-11-01T17:15:34.526Z,0.85
2022-11-01T17:18:16.271Z,1.02
2022-11-01T17:20:49.487Z,0.80
2022-11-01T17:23:23.547Z,1.00
2022-11-01T17:25:56.946Z,1.20
2022-11-01T17:28:29.668Z,1.05
2022-11-01T17:30:57.875Z,1.30
2022-11-01T17:33:30.214Z,1.05
2022-11-01T17:36:00.347Z,1.00
2022-11-01T17:38:35.919Z,1.08
2022-11-01T17:41:04.608Z,1.00
2022-11-01T17:43:38.634Z,0.95
2022-11-01T17:46:16.258Z,0.90
2022-11-01T17:48:47.043Z,1.00
2022-11-01T17:51:22.108Z,1.00
2022-11-01T17:54:00.007Z,1.15
2022-11-01T17:56:28.979Z,1.02
2022-11-01T17:59:03.683Z,1.30
2022-11-01T18:01:39.577Z,1.30
2022-11-01T18:04:15.506Z,1.40
2022-11-01T18:06:46.685Z,1.52
2022-11-01T18:09:29.487Z,1.20
2022-11-01T18:12:35.369Z,1.23
2022-11-01T18:15:17.955Z,1.10
2022-11-01T18:17:49.217Z,1.00
2022-11-01T18:20:36.826Z,1.00
2022-11-01T18:23:10.950Z,1.00
2022-11-01T18:25:55.401Z,1.50
2022-11-01T18:28:39.521Z,1.20
2022-11-01T18:31:42.196Z,0.90
2022-11-01T18:34:13.396Z,0.95
2022-11-01T18:36:54.116Z,1.02
2022-11-01T18:39:38.362Z,1.40
2022-11-01T18:42:09.463Z,1.20
2022-11-01T18:44:42.040Z,0.90
2022-11-01T18:47:21.750Z,0.98
2022-11-01T18:49:52.649Z,1.17
2022-11-01T18:52:26.840Z,1.05
2022-11-01T18:54:59.336Z,1.00
2022-11-01T18:57:29.957Z,1.15
2022-11-01T19:00:02.416Z,1.10
2022-11-01T19:02:31.692Z,1.10
2022-11-01T19:05:21.350Z,1.27
2022-11-01T19:08:11.379Z,1.00
2022-11-01T19:10:51.146Z,1.02
2022-11-01T19:13:34.448Z,0.93
2022-11-01T19:16:02.466Z,0.90
2022-11-01T19:18:44.127Z,1.35
2022-11-01T19:21:22.246Z,1.60
2022-11-01T19:24:01.703Z,1.15
2022-11-01T19:26:41.699Z,1.00
2022-11-01T19:29:21.622Z,0.90
2022-11-01T19:31:55.641Z,1.10
2022-11-01T19:34:26.679Z,1.05
2022-11-01T19:37:00.502Z,1.10
2022-11-01T19:39:33.799Z,1.38
2022-11-01T19:42:05.570Z,1.00
2022-11-01T19:44:51.807Z,1.08
2022-11-01T19:47:26.259Z,1.05
2022-11-01T19:50:00.419Z,1.10
2022-11-01T19:52:31.467Z,1.00
2022-11-01T19:54:59.634Z,0.90
2022-11-01T19:57:43.903Z,1.10
2022-11-01T20:00:19.729Z,0.90
2022-11-01T20:02:55.227Z,0.90
2022-11-01T20:05:25.679Z,1.00
2022-11-01T20:08:04.882Z,0.98
2022-11-01T20:10:32.605Z,1.08
2022-11-01T20:13:06.672Z,1.30
2022-11-01T20:15:38.365Z,1.00
2022-11-01T20:18:11.713Z,1.30
2022-11-01T20:20:50.453Z,0.80
2022-11-01T20:23:27.266Z,1.00
2022-11-01T20:25:58.857Z,1.10
2022-11-01T20:28:30.668Z,1.10
2022-11-01T20:30:58.761Z,1.25
2022-11-01T20:33:30.184Z,0.77
2022-11-01T20:36:09.869Z,1.00
2022-11-01T20:38:47.459Z,1.00
2022-11-01T20:41:25.247Z,1.00
2022-11-01T20:43:55.206Z,0.90
2022-11-01T20:46:22.722Z,1.00
2022-11-01T20:48:53.206Z,0.73
2022-11-01T20:51:26.021Z,0.90
2022-11-01T20:54:00.925Z,0.98
2022-11-01T20:56:31.147Z,1.05
2022-11-01T20:58:59.295Z,1.17
2022-11-01T21:01:30.884Z,0.88
2022-11-01T21:04:07.285Z,1.08
2022-11-01T21:06:40.464Z,1.10
2022-11-01T21:09:17.789Z,0.98
2022-11-01T21:11:48.650Z,1.02
2022-11-01T21:14:23.410Z,1.10
2022-11-01T21:16:57.005Z,1.00
2022-11-01T21:19:37.201Z,1.17
2022-11-01T21:22:14.183Z,1.10
2022-11-01T21:24:55.112Z,0.98
2022-11-01T21:27:43.238Z,0.90
2022-11-01T21:30:22.751Z,1.00
2022-11-01T21:32:54.989Z,0.82
2022-11-01T21:35:41.690Z,1.02
2022-11-01T21:38:33.326Z,0.80
2022-11-01T21:41:06.373Z,0.90
2022-11-01T21:43:37.716Z,0.77
2022-11-01T21:46:18.922Z,1.00
2022-11-01T21:48:51.752Z,0.70
2022-11-01T21:51:25.250Z,0.88
2022-11-01T21:54:07.001Z,0.90
2022-11-01T21:56:40.152Z,1.27
2022-11-01T21:59:13.628Z,1.25
2022-11-01T22:01:50.518Z,0.90
2022-11-01T22:04:17.903Z,0.90
2022-11-01T22:06:45.314Z,1.00
2022-11-01T22:09:16.554Z,1.00
2022-11-01T22:11:48.526Z,1.00
2022-11-01T22:14:18.854Z,1.13
2022-11-01T22:16:57.311Z,0.75
2022-11-01T22:19:30.187Z,0.90
2022-11-01T22:22:03.548Z,1.20
2022-11-01T22:24:36.811Z,0.90
2022-11-01T22:27:07.269Z,1.05
2022-11-01T22:29:38.626Z,1.10
2022-11-01T22:32:12.348Z,0.98
2022-11-01T22:34:45.560Z,0.80
2022-11-01T22:37:17.793Z,0.95
2022-11-01T22:40:06.777Z,1.08
2022-11-01T22:42:40.226Z,1.00
2022-11-01T22:45:21.297Z,1.27
2022-11-01T22:47:51.922Z,0.93
2022-11-01T22:50:29.887Z,1.10
2022-11-01T22:53:03.226Z,1.10
2022-11-01T22:55:36.997Z,1.00
2022-11-01T22:58:16.303Z,1.20
2022-11-01T23:00:48.729Z,1.08
2022-11-01T23:03:29.394Z,1.00
2022-11-01T23:06:05.333Z,1.05
2022-11-01T23:08:39.190Z,1.00
2022-11-01T23:11:30.669Z,1.13
2022-11-01T23:14:21.658Z,1.00
2022-11-01T23:16:54.287Z,1.08
2022-11-01T23:19:28.195Z,1.20
2022-11-01T23:21:59.034Z,1.00
2022-11-01T23:24:35.996Z,1.00
2022-11-01T23:27:16.303Z,0.90
2022-11-01T23:29:49.139Z,1.00
2022-11-01T23:32:19.907Z,0.95
2022-11-01T23:34:50.029Z,1.00
2022-11-01T23:37:24.499Z,1.00
2022-11-01T23:39:57.361Z,1.00
2022-11-01T23:42:30.699Z,1.10
2022-11-01T23:45:09.853Z,1.00
2022-11-01T23:47:49.888Z,0.93
2022-11-01T23:50:27.224Z,1.10
2022-11-01T23:52:57.450Z,1.15
2022-11-01T23:55:31.144Z,0.98
2022-11-01T23:58:00.660Z,0.98
